createdAt,value
2017-01-12T00:00:31.973Z,0
2017-01-12T00:01:36.169Z,0
2017-01-12T00:02:41.368Z,0
2017-01-12T00:03:46.570Z,0
2017-01-12T00:04:50.769Z,0
2017-01-12T00:05:56.935Z,0
2017-01-12T00:07:02.143Z,0
2017-01-12T00:08:07.345Z,0
2017-01-12T00:09:11.560Z,0
2017-01-12T00:10:14.806Z,0
2017-01-12T00:11:20.995Z,0
2017-01-12T00:12:27.162Z,0
2017-01-12T00:13:31.396Z,0
2017-01-12T00:14:37.562Z,0
2017-01-12T00:15:41.784Z,0
2017-01-12T00:16:46.955Z,0
2017-01-12T00:17:52.147Z,0
2017-01-12T00:18:58.441Z,0
2017-01-12T00:20:02.676Z,0
2017-01-12T00:21:07.872Z,0
2017-01-12T00:22:14.039Z,0
2017-01-12T00:24:23.178Z,0
2017-01-12T00:25:29.344Z,0
2017-01-12T00:26:35.516Z,0
2017-01-12T00:27:40.770Z,0
2017-01-12T00:28:45.935Z,0
2017-01-12T00:29:51.132Z,0
2017-01-12T00:30:55.329Z,0
2017-01-12T00:31:59.559Z,0
2017-01-12T00:33:04.762Z,0
2017-01-12T00:34:09.955Z,0
2017-01-12T00:35:14.194Z,0
2017-01-12T00:36:19.368Z,0
2017-01-12T00:37:25.528Z,0
2017-01-12T00:38:31.695Z,0
2017-01-12T00:39:36.901Z,0
2017-01-12T00:40:42.094Z,0
2017-01-12T00:41:46.293Z,0
2017-01-12T00:42:50.553Z,0
2017-01-12T00:43:55.763Z,0
2017-01-12T00:45:00.928Z,0
2017-01-12T00:46:05.156Z,0
2017-01-12T00:47:10.319Z,0
2017-01-12T00:48:15.567Z,0
2017-01-12T00:49:20.837Z,0
2017-01-12T00:50:26.033Z,0
2017-01-12T00:51:32.211Z,0
2017-01-12T00:52:38.374Z,0
2017-01-12T00:54:50.721Z,0
2017-01-12T00:55:55.905Z,0
2017-01-12T00:57:01.110Z,0
2017-01-12T00:58:06.306Z,0
2017-01-12T00:59:12.485Z,0
2017-01-12T01:00:17.679Z,0
2017-01-12T01:01:22.866Z,0
2017-01-12T01:02:29.038Z,0
2017-01-12T01:03:34.213Z,0
2017-01-12T01:04:39.407Z,0
2017-01-12T01:05:43.606Z,0
2017-01-12T01:06:48.806Z,0
2017-01-12T01:07:52.085Z,0
2017-01-12T01:08:56.259Z,0
2017-01-12T01:10:01.452Z,0
2017-01-12T01:11:07.621Z,0
2017-01-12T01:12:13.783Z,0
2017-01-12T01:13:19.943Z,0
2017-01-12T01:14:24.508Z,0
2017-01-12T01:15:29.724Z,0
2017-01-12T01:16:36.042Z,0
2017-01-12T01:17:40.285Z,0
2017-01-12T01:18:46.451Z,0
2017-01-12T01:19:51.651Z,0
2017-01-12T01:20:55.874Z,0
2017-01-12T01:22:01.075Z,0
2017-01-12T01:23:07.247Z,0
2017-01-12T01:24:13.405Z,0
2017-01-12T01:25:18.636Z,0
2017-01-12T01:26:24.831Z,0
2017-01-12T01:27:29.997Z,0
2017-01-12T01:28:35.188Z,0
2017-01-12T01:29:41.361Z,0
2017-01-12T01:30:47.517Z,0
2017-01-12T01:31:53.682Z,0
2017-01-12T01:32:58.940Z,0
2017-01-12T01:34:04.147Z,0
2017-01-12T01:35:10.310Z,0
2017-01-12T01:36:15.515Z,0
2017-01-12T01:37:20.792Z,0
2017-01-12T01:38:24.029Z,0
2017-01-12T01:39:27.272Z,0
2017-01-12T01:40:32.471Z,0
2017-01-12T01:41:38.654Z,0
2017-01-12T01:42:43.825Z,0
2017-01-12T01:43:49.996Z,0
2017-01-12T01:44:56.169Z,0
2017-01-12T01:46:02.343Z,0
2017-01-12T01:47:08.549Z,0
2017-01-12T01:48:13.735Z,0
2017-01-12T01:49:16.976Z,0
2017-01-12T01:50:23.135Z,0
2017-01-12T01:51:29.304Z,0
2017-01-12T01:52:33.583Z,0
2017-01-12T01:53:37.741Z,0
2017-01-12T01:54:42.937Z,0
2017-01-12T01:55:46.206Z,0
2017-01-12T01:56:51.405Z,0
2017-01-12T01:57:55.735Z,0
2017-01-12T01:59:00.929Z,0
2017-01-12T02:00:07.202Z,0
2017-01-12T02:01:11.042Z,0
2017-01-12T02:02:15.238Z,0
2017-01-12T02:03:21.405Z,0
2017-01-12T02:04:27.579Z,0
2017-01-12T02:05:32.775Z,0
2017-01-12T02:06:37.059Z,0
2017-01-12T02:07:43.349Z,0
2017-01-12T02:08:48.534Z,0
2017-01-12T02:09:53.731Z,0
2017-01-12T02:10:56.010Z,0
2017-01-12T02:12:01.230Z,0
2017-01-12T02:13:06.406Z,0
2017-01-12T02:14:11.687Z,0
2017-01-12T02:15:16.908Z,0
2017-01-12T02:16:23.073Z,0
2017-01-12T02:17:27.307Z,0
2017-01-12T02:18:32.534Z,0
2017-01-12T02:19:37.740Z,0
2017-01-12T02:20:42.948Z,0
2017-01-12T02:21:49.184Z,0
2017-01-12T02:22:55.348Z,0
2017-01-12T02:24:00.553Z,0
2017-01-12T02:25:06.777Z,0
2017-01-12T02:26:11.028Z,0
2017-01-12T02:27:15.487Z,0
2017-01-12T02:28:20.951Z,0
2017-01-12T02:29:26.151Z,0
2017-01-12T02:30:30.384Z,0
2017-01-12T02:31:35.612Z,0
2017-01-12T02:32:39.000Z,0
2017-01-12T02:33:45.172Z,0
2017-01-12T02:34:51.333Z,0
2017-01-12T02:35:57.512Z,0
2017-01-12T02:37:02.739Z,0
2017-01-12T02:38:07.037Z,0
2017-01-12T02:39:12.226Z,0
2017-01-12T02:40:17.513Z,0
2017-01-12T02:41:22.715Z,0
2017-01-12T02:42:26.954Z,0
2017-01-12T02:43:32.126Z,0
2017-01-12T02:44:37.413Z,0
2017-01-12T02:45:42.529Z,0
2017-01-12T02:46:48.730Z,0
2017-01-12T02:47:53.864Z,0
2017-01-12T02:48:59.056Z,0
2017-01-12T02:50:03.375Z,0
2017-01-12T02:51:08.515Z,0
2017-01-12T02:52:13.717Z,0
2017-01-12T02:53:19.888Z,0
2017-01-12T02:54:26.054Z,0
2017-01-12T02:55:32.230Z,0
2017-01-12T02:56:37.434Z,0
2017-01-12T02:57:42.687Z,0
2017-01-12T02:58:48.851Z,0
2017-01-12T02:59:55.055Z,0
2017-01-12T03:01:00.276Z,0
2017-01-12T03:02:04.506Z,0
2017-01-12T03:03:07.750Z,0
2017-01-12T03:04:13.919Z,0
2017-01-12T03:05:19.118Z,0
2017-01-12T03:06:24.308Z,0
2017-01-12T03:07:30.477Z,0
2017-01-12T03:08:36.650Z,0
2017-01-12T03:09:41.841Z,0
2017-01-12T03:10:47.035Z,0
2017-01-12T03:11:53.207Z,0
2017-01-12T03:12:57.407Z,0
2017-01-12T03:14:03.570Z,0
2017-01-12T03:15:09.736Z,0
2017-01-12T03:16:14.945Z,0
2017-01-12T03:17:20.115Z,0
2017-01-12T03:18:26.359Z,0
2017-01-12T03:19:31.560Z,0
2017-01-12T03:20:37.724Z,0
2017-01-12T03:21:43.889Z,0
2017-01-12T03:22:49.093Z,0
2017-01-12T03:23:55.259Z,0
2017-01-12T03:25:00.460Z,0
2017-01-12T03:26:05.623Z,0
2017-01-12T03:27:09.847Z,0
2017-01-12T03:28:15.061Z,0
2017-01-12T03:29:20.261Z,0
2017-01-12T03:30:26.424Z,0
2017-01-12T03:31:31.686Z,0
2017-01-12T03:32:35.891Z,0
2017-01-12T03:33:40.231Z,0
2017-01-12T03:34:46.393Z,0
2017-01-12T03:35:52.558Z,0
2017-01-12T03:36:57.762Z,0
2017-01-12T03:38:03.015Z,0
2017-01-12T03:39:09.187Z,0
2017-01-12T03:40:15.362Z,0
2017-01-12T03:41:20.588Z,0
2017-01-12T03:42:26.768Z,0
2017-01-12T03:43:31.912Z,0
2017-01-12T03:44:38.185Z,0
2017-01-12T03:45:42.427Z,0
2017-01-12T03:46:46.661Z,0
2017-01-12T03:47:51.861Z,0
2017-01-12T03:48:56.073Z,0
2017-01-12T03:50:01.272Z,0
2017-01-12T03:51:06.473Z,0
2017-01-12T03:52:11.670Z,0
2017-01-12T03:53:15.871Z,0
2017-01-12T03:54:21.069Z,0
2017-01-12T03:55:26.263Z,0
2017-01-12T03:56:31.444Z,0
2017-01-12T03:57:36.612Z,0
2017-01-12T03:58:42.784Z,0
2017-01-12T03:59:47.382Z,0
2017-01-12T04:00:52.573Z,0
2017-01-12T04:01:58.743Z,0
2017-01-12T04:03:04.908Z,0
2017-01-12T04:04:11.074Z,0
2017-01-12T04:05:17.232Z,0
2017-01-12T04:06:22.410Z,0
2017-01-12T04:07:28.589Z,0
2017-01-12T04:08:34.757Z,0
2017-01-12T04:09:39.947Z,0
2017-01-12T04:10:46.125Z,0
2017-01-12T04:11:52.301Z,0
2017-01-12T04:12:56.511Z,0
2017-01-12T04:14:01.682Z,0
2017-01-12T04:15:07.845Z,0
2017-01-12T04:17:17.275Z,0
2017-01-12T04:18:23.496Z,0
2017-01-12T04:19:29.649Z,0
2017-01-12T04:20:33.889Z,0
2017-01-12T04:21:39.088Z,0
2017-01-12T04:22:43.316Z,0
2017-01-12T04:23:49.454Z,0
2017-01-12T04:24:53.726Z,0
2017-01-12T04:25:56.961Z,0
2017-01-12T04:27:02.209Z,0
2017-01-12T04:28:07.409Z,0
2017-01-12T04:29:11.626Z,0
2017-01-12T04:30:17.789Z,0
2017-01-12T04:31:22.988Z,0
2017-01-12T04:32:29.141Z,0
2017-01-12T04:33:33.352Z,0
2017-01-12T04:34:39.638Z,0
2017-01-12T04:35:44.842Z,0
2017-01-12T04:36:51.001Z,0
2017-01-12T04:37:55.234Z,0
2017-01-12T04:39:01.405Z,0
2017-01-12T04:40:06.628Z,0
2017-01-12T04:41:11.825Z,0
2017-01-12T04:42:17.079Z,0
2017-01-12T04:43:22.239Z,0
2017-01-12T04:44:28.410Z,0
2017-01-12T04:45:32.678Z,0
2017-01-12T04:46:37.876Z,0
2017-01-12T04:47:44.046Z,0
2017-01-12T04:48:49.274Z,0
2017-01-12T04:49:55.391Z,0
2017-01-12T04:51:00.592Z,0
2017-01-12T04:52:04.819Z,0
2017-01-12T04:53:10.974Z,0
2017-01-12T04:54:15.222Z,0
2017-01-12T04:55:21.516Z,0
2017-01-12T04:56:25.645Z,0
2017-01-12T04:57:31.818Z,0
2017-01-12T04:58:37.985Z,0
2017-01-12T04:59:43.234Z,0
2017-01-12T05:00:48.436Z,0
2017-01-12T05:01:54.599Z,0
2017-01-12T05:02:59.903Z,0
2017-01-12T05:04:04.098Z,0
2017-01-12T05:05:10.263Z,0
2017-01-12T05:06:16.463Z,0
2017-01-12T05:07:20.664Z,0
2017-01-12T05:08:26.846Z,0
2017-01-12T05:09:30.070Z,0
2017-01-12T05:10:35.247Z,0
2017-01-12T05:11:41.170Z,0
2017-01-12T05:12:46.363Z,0
2017-01-12T05:13:51.590Z,0
2017-01-12T05:14:57.761Z,0
2017-01-12T05:16:02.698Z,0
2017-01-12T05:17:07.899Z,0
2017-01-12T05:18:12.127Z,0
2017-01-12T05:19:18.298Z,0
2017-01-12T05:20:24.563Z,0
2017-01-12T05:21:30.730Z,0
2017-01-12T05:22:35.904Z,0
2017-01-12T05:23:41.165Z,0
2017-01-12T05:24:46.364Z,0
2017-01-12T05:25:51.560Z,0
2017-01-12T05:26:57.742Z,0
2017-01-12T05:28:02.937Z,0
2017-01-12T05:29:07.163Z,0
2017-01-12T05:30:13.327Z,0
2017-01-12T05:31:19.546Z,0
2017-01-12T05:32:25.674Z,0
2017-01-12T05:33:31.869Z,0
2017-01-12T05:34:37.070Z,0
2017-01-12T05:35:43.236Z,0
2017-01-12T05:36:49.447Z,0
2017-01-12T05:37:55.562Z,0
2017-01-12T05:39:01.732Z,0
2017-01-12T05:40:04.995Z,0
2017-01-12T05:41:11.161Z,0
2017-01-12T05:42:15.357Z,0
2017-01-12T05:43:20.562Z,0
2017-01-12T05:44:26.777Z,0
2017-01-12T05:45:32.941Z,0
2017-01-12T05:46:38.133Z,0
2017-01-12T05:47:41.362Z,0
2017-01-12T05:48:47.533Z,0
2017-01-12T05:49:51.782Z,0
2017-01-12T05:50:57.949Z,0
2017-01-12T05:52:02.158Z,0
2017-01-12T05:53:08.318Z,0
2017-01-12T05:54:13.521Z,0
2017-01-12T05:55:19.722Z,0
2017-01-12T05:56:23.922Z,0
2017-01-12T05:57:30.085Z,0
2017-01-12T05:58:36.267Z,0
2017-01-12T05:59:42.431Z,0
2017-01-12T06:00:46.674Z,0
2017-01-12T06:01:51.870Z,0
2017-01-12T06:02:58.035Z,0
2017-01-12T06:04:02.242Z,0
2017-01-12T06:05:08.409Z,0
2017-01-12T06:06:12.646Z,0
2017-01-12T06:07:17.808Z,0
2017-01-12T06:08:23.088Z,0
2017-01-12T06:09:27.239Z,0
2017-01-12T06:10:32.409Z,0
2017-01-12T06:12:41.993Z,0
2017-01-12T06:13:48.251Z,0
2017-01-12T06:14:54.418Z,0
2017-01-12T06:15:58.626Z,0
2017-01-12T06:17:01.871Z,0
2017-01-12T06:18:07.047Z,0
2017-01-12T06:19:13.247Z,0
2017-01-12T06:20:18.416Z,0
2017-01-12T06:21:22.644Z,0
2017-01-12T06:22:27.846Z,0
2017-01-12T06:23:32.075Z,0
2017-01-12T06:24:38.344Z,0
2017-01-12T06:25:41.569Z,0
2017-01-12T06:26:47.734Z,0
2017-01-12T06:27:52.933Z,0
2017-01-12T06:28:59.182Z,0
2017-01-12T06:30:04.376Z,0
2017-01-12T06:31:09.556Z,0
2017-01-12T06:32:15.777Z,0
2017-01-12T06:33:20.973Z,0
2017-01-12T06:34:26.243Z,0
2017-01-12T06:35:31.423Z,0
2017-01-12T06:36:37.590Z,0
2017-01-12T06:37:41.795Z,0
2017-01-12T06:38:46.004Z,0
2017-01-12T06:39:51.208Z,0
2017-01-12T06:40:53.485Z,0
2017-01-12T06:41:57.808Z,0
2017-01-12T06:43:02.993Z,0
2017-01-12T06:44:09.151Z,0
2017-01-12T06:45:13.374Z,0
2017-01-12T06:46:18.553Z,0
2017-01-12T06:47:24.406Z,0
2017-01-12T06:48:30.578Z,0
2017-01-12T06:49:36.750Z,0
2017-01-12T06:50:40.979Z,0
2017-01-12T06:51:45.206Z,0
2017-01-12T06:52:50.404Z,0
2017-01-12T06:53:56.577Z,0
2017-01-12T06:55:01.773Z,0
2017-01-12T06:56:08.026Z,0
2017-01-12T06:57:13.220Z,0
2017-01-12T06:58:18.399Z,4
2017-01-12T06:59:23.608Z,4
2017-01-12T07:00:28.807Z,4
2017-01-12T07:01:34.011Z,0
2017-01-12T07:02:36.289Z,4
2017-01-12T07:03:40.494Z,4
2017-01-12T07:04:45.713Z,8
2017-01-12T07:05:50.929Z,4
2017-01-12T07:06:57.125Z,8
2017-01-12T07:08:03.235Z,12
2017-01-12T07:09:07.467Z,12
2017-01-12T07:10:12.660Z,16
2017-01-12T07:11:16.890Z,16
2017-01-12T07:12:23.161Z,24
2017-01-12T07:14:35.504Z,32
2017-01-12T07:15:39.712Z,36
2017-01-12T07:16:43.945Z,44
2017-01-12T07:17:49.141Z,52
2017-01-12T07:18:55.359Z,60
2017-01-12T07:20:01.488Z,72
2017-01-12T07:21:06.164Z,84
2017-01-12T07:22:12.328Z,96
2017-01-12T07:23:17.499Z,108
2017-01-12T07:24:21.748Z,120
2017-01-12T07:25:26.278Z,132
2017-01-12T07:26:32.458Z,148
2017-01-12T07:27:37.654Z,164
2017-01-12T07:28:43.825Z,184
2017-01-12T07:29:49.028Z,200
2017-01-12T07:30:55.207Z,216
2017-01-12T07:31:59.413Z,232
2017-01-12T07:33:05.694Z,256
2017-01-12T07:34:11.865Z,272
2017-01-12T07:35:18.033Z,288
2017-01-12T07:36:23.237Z,316
2017-01-12T07:37:27.558Z,336
2017-01-12T07:38:32.744Z,388
2017-01-12T07:39:37.924Z,460
2017-01-12T07:40:42.157Z,416
2017-01-12T07:41:46.387Z,368
2017-01-12T07:42:51.599Z,332
2017-01-12T07:43:57.827Z,348
2017-01-12T07:45:02.059Z,376
2017-01-12T07:46:07.259Z,420
2017-01-12T07:47:11.589Z,440
2017-01-12T07:48:15.821Z,424
2017-01-12T07:49:21.023Z,464
2017-01-12T07:50:26.223Z,492
2017-01-12T07:51:31.468Z,532
2017-01-12T07:52:35.742Z,568
2017-01-12T07:53:41.909Z,608
2017-01-12T07:54:46.169Z,644
2017-01-12T07:55:51.361Z,676
2017-01-12T07:56:55.660Z,716
2017-01-12T07:58:00.825Z,752
2017-01-12T07:59:07.048Z,788
2017-01-12T08:00:12.216Z,828
2017-01-12T08:01:17.392Z,880
2017-01-12T08:02:22.592Z,956
2017-01-12T08:03:28.847Z,1124
2017-01-12T08:04:33.075Z,1148
2017-01-12T08:05:37.373Z,1132
2017-01-12T08:06:42.545Z,1184
2017-01-12T08:07:46.773Z,1248
2017-01-12T08:08:52.938Z,1312
2017-01-12T08:09:58.136Z,1364
2017-01-12T08:11:02.370Z,1440
2017-01-12T08:12:07.656Z,1524
2017-01-12T08:13:13.784Z,1608
2017-01-12T08:14:18.993Z,1892
2017-01-12T08:15:25.159Z,1968
2017-01-12T08:16:30.360Z,1892
2017-01-12T08:17:36.514Z,1896
2017-01-12T08:18:39.789Z,1724
2017-01-12T08:19:44.002Z,1652
2017-01-12T08:20:49.231Z,1740
2017-01-12T08:21:54.396Z,1980
2017-01-12T08:22:58.626Z,2040
2017-01-12T08:24:04.795Z,2256
2017-01-12T08:25:10.002Z,2260
2017-01-12T08:26:13.237Z,2404
2017-01-12T08:27:19.403Z,2312
2017-01-12T08:28:25.615Z,2364
2017-01-12T08:29:31.785Z,2624
2017-01-12T08:30:36.956Z,3140
2017-01-12T08:31:43.258Z,3004
2017-01-12T08:32:48.413Z,2860
2017-01-12T08:33:54.574Z,3076
2017-01-12T08:35:00.762Z,3324
2017-01-12T08:36:04.975Z,3384
2017-01-12T08:37:09.178Z,3328
2017-01-12T08:38:15.428Z,2832
2017-01-12T08:39:21.598Z,2576
2017-01-12T08:40:27.763Z,2868
2017-01-12T08:41:33.007Z,2624
2017-01-12T08:42:38.209Z,2688
2017-01-12T08:43:43.410Z,2748
2017-01-12T08:44:49.582Z,2692
2017-01-12T08:45:52.865Z,2752
2017-01-12T08:46:58.022Z,2992
2017-01-12T08:48:04.235Z,3224
2017-01-12T08:49:09.429Z,3512
2017-01-12T08:50:14.635Z,3464
2017-01-12T08:51:20.801Z,3688
2017-01-12T08:52:26.003Z,4268
2017-01-12T08:53:31.196Z,5520
2017-01-12T08:54:37.355Z,6544
2017-01-12T08:55:43.536Z,8588
2017-01-12T08:56:48.796Z,7164
2017-01-12T08:57:53.980Z,5312
2017-01-12T08:58:59.182Z,6552
2017-01-12T09:00:04.383Z,7500
2017-01-12T09:01:10.555Z,6836
2017-01-12T09:02:15.755Z,7624
2017-01-12T09:03:21.919Z,4764
2017-01-12T09:04:27.140Z,4012
2017-01-12T09:05:33.312Z,4380
2017-01-12T09:06:39.475Z,5188
2017-01-12T09:07:43.735Z,5484
2017-01-12T09:08:48.937Z,4660
2017-01-12T09:09:54.106Z,4368
2017-01-12T09:10:59.344Z,5736
2017-01-12T09:12:03.552Z,9744
2017-01-12T09:13:08.746Z,12112
2017-01-12T09:14:13.952Z,12304
2017-01-12T09:15:18.153Z,10044
2017-01-12T09:16:23.358Z,12252
2017-01-12T09:17:28.575Z,12164
2017-01-12T09:18:34.785Z,11344
2017-01-12T09:19:40.915Z,9872
2017-01-12T09:20:46.115Z,9744
2017-01-12T09:21:52.318Z,5980
2017-01-12T09:22:57.523Z,8644
2017-01-12T09:24:02.688Z,9556
2017-01-12T09:25:08.861Z,9424
2017-01-12T09:26:15.025Z,8948
2017-01-12T09:27:21.196Z,9304
2017-01-12T09:28:26.360Z,6692
2017-01-12T09:29:31.628Z,11676
2017-01-12T09:30:37.802Z,12220
2017-01-12T09:31:42.996Z,14848
2017-01-12T09:32:49.167Z,16096
2017-01-12T09:33:55.335Z,14048
2017-01-12T09:35:00.539Z,6404
2017-01-12T09:36:06.712Z,5020
2017-01-12T09:37:10.997Z,4232
2017-01-12T09:38:16.203Z,4368
2017-01-12T09:39:22.406Z,10676
2017-01-12T09:40:26.648Z,12860
2017-01-12T09:41:32.818Z,13084
2017-01-12T09:42:37.999Z,13244
2017-01-12T09:44:49.335Z,4932
2017-01-12T09:45:52.610Z,4344
2017-01-12T09:46:56.965Z,4036
2017-01-12T09:48:01.219Z,6472
2017-01-12T09:49:06.434Z,10124
2017-01-12T09:50:10.650Z,15072
2017-01-12T09:51:16.814Z,15840
2017-01-12T09:52:21.049Z,10124
2017-01-12T09:53:25.329Z,18496
2017-01-12T09:54:31.502Z,18016
2017-01-12T09:55:37.680Z,15776
2017-01-12T09:56:41.916Z,13664
2017-01-12T09:57:48.088Z,11228
2017-01-12T09:58:53.293Z,9092
2017-01-12T09:59:58.537Z,12176
2017-01-12T10:01:04.704Z,6980
2017-01-12T10:02:10.887Z,9460
2017-01-12T10:03:17.057Z,7068
2017-01-12T10:04:22.259Z,7236
2017-01-12T10:05:26.501Z,8292
2017-01-12T10:06:31.711Z,7832
2017-01-12T10:07:36.916Z,8744
2017-01-12T10:08:43.145Z,8892
2017-01-12T10:09:48.316Z,7668
2017-01-12T10:10:53.636Z,6768
2017-01-12T10:11:58.800Z,6016
2017-01-12T10:13:05.152Z,5772
2017-01-12T10:14:11.326Z,6324
2017-01-12T10:15:16.526Z,5756
2017-01-12T10:16:22.691Z,5820
2017-01-12T10:17:26.938Z,5500
2017-01-12T10:18:33.129Z,6192
2017-01-12T10:19:38.333Z,6804
2017-01-12T10:20:42.566Z,8052
2017-01-12T10:21:48.827Z,7928
2017-01-12T10:22:54.998Z,7900
2017-01-12T10:23:59.226Z,8460
2017-01-12T10:25:03.434Z,6756
2017-01-12T10:26:06.702Z,8284
2017-01-12T10:27:11.971Z,9216
2017-01-12T10:28:18.142Z,9924
2017-01-12T10:29:21.409Z,12636
2017-01-12T10:30:26.609Z,12924
2017-01-12T10:31:32.782Z,12540
2017-01-12T10:32:38.048Z,11640
2017-01-12T10:33:42.288Z,10980
2017-01-12T10:34:47.489Z,11608
2017-01-12T10:35:52.696Z,12744
2017-01-12T10:36:57.867Z,13240
2017-01-12T10:38:03.086Z,15264
2017-01-12T10:39:09.304Z,10164
2017-01-12T10:40:15.547Z,10616
2017-01-12T10:41:21.750Z,8912
2017-01-12T10:42:26.922Z,9480
2017-01-12T10:43:31.161Z,8544
2017-01-12T10:44:37.331Z,7988
2017-01-12T10:45:43.513Z,8220
2017-01-12T10:46:49.712Z,7344
2017-01-12T10:47:54.870Z,12312
2017-01-12T10:48:59.101Z,17632
2017-01-12T10:50:03.820Z,19360
2017-01-12T10:51:09.951Z,17696
2017-01-12T10:52:14.344Z,16448
2017-01-12T10:53:19.651Z,14340
2017-01-12T10:54:24.857Z,15232
2017-01-12T10:55:31.077Z,15200
2017-01-12T10:56:37.244Z,15168
2017-01-12T10:57:42.458Z,17376
2017-01-12T10:58:48.626Z,11764
2017-01-12T10:59:54.919Z,5804
2017-01-12T11:01:00.154Z,5184
2017-01-12T11:02:05.996Z,4988
2017-01-12T11:03:11.211Z,4988
2017-01-12T11:04:16.416Z,4924
2017-01-12T11:05:20.652Z,5292
2017-01-12T11:06:26.881Z,5492
2017-01-12T11:07:32.068Z,5548
2017-01-12T11:08:37.274Z,9316
2017-01-12T11:09:42.477Z,12900
2017-01-12T11:10:48.642Z,6600
2017-01-12T11:11:52.878Z,5280
2017-01-12T11:12:58.095Z,5860
2017-01-12T11:14:03.294Z,6508
2017-01-12T11:15:08.568Z,6608
2017-01-12T11:16:12.781Z,6528
2017-01-12T11:17:17.001Z,5876
2017-01-12T11:18:23.175Z,5984
2017-01-12T11:19:28.431Z,5568
2017-01-12T11:20:29.738Z,5076
2017-01-12T11:21:34.946Z,4676
2017-01-12T11:22:40.121Z,4860
2017-01-12T11:23:45.414Z,4640
2017-01-12T11:24:49.545Z,4892
2017-01-12T11:25:54.765Z,5124
2017-01-12T11:27:00.936Z,4304
2017-01-12T11:28:06.138Z,4028
2017-01-12T11:29:11.356Z,3992
2017-01-12T11:31:23.692Z,3760
2017-01-12T11:32:27.931Z,3816
2017-01-12T11:33:32.168Z,3668
2017-01-12T11:34:38.436Z,3652
2017-01-12T11:35:43.636Z,3712
2017-01-12T11:36:48.820Z,3708
2017-01-12T11:37:54.086Z,3784
2017-01-12T11:38:59.267Z,3868
2017-01-12T11:40:05.442Z,4332
2017-01-12T11:41:11.615Z,4320
2017-01-12T11:42:17.773Z,4212
2017-01-12T11:43:22.973Z,3888
2017-01-12T11:44:29.197Z,4120
2017-01-12T11:45:35.361Z,4264
2017-01-12T11:46:39.683Z,3860
2017-01-12T11:47:44.909Z,3816
2017-01-12T11:48:51.134Z,3980
2017-01-12T11:49:56.301Z,4136
2017-01-12T11:51:01.609Z,4316
2017-01-12T11:52:06.844Z,4384
2017-01-12T11:53:11.982Z,4352
2017-01-12T11:54:17.209Z,4516
2017-01-12T11:55:22.415Z,4804
2017-01-12T11:56:26.668Z,5016
2017-01-12T11:57:31.869Z,4784
2017-01-12T11:58:36.075Z,4432
2017-01-12T11:59:41.266Z,4508
2017-01-12T12:00:46.475Z,4388
2017-01-12T12:01:52.640Z,5028
2017-01-12T12:02:56.857Z,3976
2017-01-12T12:04:03.021Z,3740
2017-01-12T12:05:07.269Z,3644
2017-01-12T12:06:13.434Z,3804
2017-01-12T12:07:19.605Z,3680
2017-01-12T12:08:25.770Z,4184
2017-01-12T12:09:29.979Z,3568
2017-01-12T12:10:35.238Z,4040
2017-01-12T12:11:40.352Z,3600
2017-01-12T12:12:46.562Z,3452
2017-01-12T12:13:51.756Z,3724
2017-01-12T12:14:55.020Z,4112
2017-01-12T12:16:01.190Z,4292
2017-01-12T12:17:07.404Z,4344
2017-01-12T12:18:12.618Z,4236
2017-01-12T12:19:18.816Z,4184
2017-01-12T12:20:24.984Z,4188
2017-01-12T12:21:30.192Z,4196
2017-01-12T12:22:34.391Z,4096
2017-01-12T12:23:39.642Z,4112
2017-01-12T12:24:44.843Z,3956
2017-01-12T12:25:50.046Z,4008
2017-01-12T12:26:54.278Z,4064
2017-01-12T12:27:58.482Z,4132
2017-01-12T12:29:03.714Z,4608
2017-01-12T12:30:07.895Z,4744
2017-01-12T12:31:13.092Z,4728
2017-01-12T12:32:18.294Z,4656
2017-01-12T12:33:22.531Z,4440
2017-01-12T12:34:26.832Z,4852
2017-01-12T12:35:33.087Z,4456
2017-01-12T12:36:38.260Z,4520
2017-01-12T12:37:43.510Z,4564
2017-01-12T12:38:49.677Z,4704
2017-01-12T12:39:54.891Z,5012
2017-01-12T12:41:01.051Z,5300
2017-01-12T12:42:07.292Z,5468
2017-01-12T12:43:11.530Z,5568
2017-01-12T12:44:16.732Z,5776
2017-01-12T12:45:21.933Z,5712
2017-01-12T12:46:25.176Z,5728
2017-01-12T12:47:30.462Z,5616
2017-01-12T12:48:36.638Z,5440
2017-01-12T12:49:41.829Z,5296
2017-01-12T12:50:46.038Z,5208
2017-01-12T12:51:51.236Z,5212
2017-01-12T12:52:56.466Z,5392
2017-01-12T12:54:00.694Z,5492
2017-01-12T12:55:05.889Z,5568
2017-01-12T12:56:11.092Z,5664
2017-01-12T12:57:16.294Z,5712
2017-01-12T12:58:21.487Z,5700
2017-01-12T12:59:27.660Z,5552
2017-01-12T13:00:33.889Z,5480
2017-01-12T13:01:40.069Z,5452
2017-01-12T13:02:44.326Z,5512
2017-01-12T13:03:50.497Z,5628
2017-01-12T13:04:55.685Z,5756
2017-01-12T13:06:00.880Z,5888
2017-01-12T13:07:05.163Z,5768
2017-01-12T13:08:09.374Z,5340
2017-01-12T13:09:12.612Z,5068
2017-01-12T13:10:18.791Z,4848
2017-01-12T13:11:25.023Z,4804
2017-01-12T13:12:31.182Z,4804
2017-01-12T13:13:37.378Z,4804
2017-01-12T13:14:43.518Z,4768
2017-01-12T13:15:49.685Z,4560
2017-01-12T13:16:55.866Z,4472
2017-01-12T13:18:01.186Z,4160
2017-01-12T13:19:06.362Z,4160
2017-01-12T13:20:10.595Z,3876
2017-01-12T13:21:15.819Z,3832
2017-01-12T13:22:22.010Z,3916
2017-01-12T13:23:26.246Z,3652
2017-01-12T13:24:32.422Z,3676
2017-01-12T13:25:36.658Z,3584
2017-01-12T13:26:39.915Z,3660
2017-01-12T13:27:45.164Z,3836
2017-01-12T13:28:50.326Z,3932
2017-01-12T13:29:56.504Z,4176
2017-01-12T13:31:01.684Z,4368
2017-01-12T13:32:06.860Z,4504
2017-01-12T13:33:10.100Z,4500
2017-01-12T13:34:16.282Z,4500
2017-01-12T13:35:22.462Z,4264
2017-01-12T13:36:28.631Z,4248
2017-01-12T13:37:33.949Z,4160
2017-01-12T13:38:39.159Z,4328
2017-01-12T13:39:44.356Z,4424
2017-01-12T13:40:50.524Z,4264
2017-01-12T13:41:56.685Z,4100
2017-01-12T13:42:59.934Z,4064
2017-01-12T13:44:05.126Z,4332
2017-01-12T13:45:09.381Z,4180
2017-01-12T13:46:14.636Z,4116
2017-01-12T13:47:18.849Z,3900
2017-01-12T13:48:24.027Z,3972
2017-01-12T13:49:30.193Z,3952
2017-01-12T13:50:36.364Z,3860
2017-01-12T13:51:42.537Z,3880
2017-01-12T13:52:48.697Z,3780
2017-01-12T13:53:54.920Z,3736
2017-01-12T13:55:01.086Z,3688
2017-01-12T13:56:06.301Z,3496
2017-01-12T13:57:11.501Z,3356
2017-01-12T13:58:17.639Z,3212
2017-01-12T13:59:22.845Z,3332
2017-01-12T14:00:27.076Z,3208
2017-01-12T14:01:32.291Z,3016
2017-01-12T14:02:38.459Z,2996
2017-01-12T14:03:42.692Z,2840
2017-01-12T14:04:48.858Z,2820
2017-01-12T14:05:52.102Z,2824
2017-01-12T14:06:56.339Z,2808
2017-01-12T14:08:02.506Z,2796
2017-01-12T14:09:07.714Z,2708
2017-01-12T14:10:12.913Z,2644
2017-01-12T14:11:19.077Z,2532
2017-01-12T14:12:23.308Z,2216
2017-01-12T14:13:27.576Z,2164
2017-01-12T14:14:33.741Z,2320
2017-01-12T14:15:37.984Z,2388
2017-01-12T14:16:43.184Z,2352
2017-01-12T14:17:47.389Z,2356
2017-01-12T14:18:53.567Z,2256
2017-01-12T14:19:58.773Z,2160
2017-01-12T14:21:03.024Z,2036
2017-01-12T14:22:08.224Z,1900
2017-01-12T14:23:12.452Z,1808
2017-01-12T14:24:18.634Z,1744
2017-01-12T14:25:22.873Z,1672
2017-01-12T14:26:29.068Z,1624
2017-01-12T14:27:34.269Z,1608
2017-01-12T14:28:40.437Z,1608
2017-01-12T14:29:46.605Z,1612
2017-01-12T14:30:51.815Z,1600
2017-01-12T14:31:57.015Z,1596
2017-01-12T14:33:01.246Z,1576
2017-01-12T14:34:06.440Z,1536
2017-01-12T14:35:12.645Z,1492
2017-01-12T14:36:17.891Z,1468
2017-01-12T14:37:23.090Z,1500
2017-01-12T14:38:28.288Z,1524
2017-01-12T14:39:32.566Z,1512
2017-01-12T14:40:37.769Z,1560
2017-01-12T14:41:41.999Z,1572
2017-01-12T14:42:47.191Z,1556
2017-01-12T14:43:51.434Z,1472
2017-01-12T14:44:55.631Z,1384
2017-01-12T14:46:00.825Z,1312
2017-01-12T14:47:06.037Z,1292
2017-01-12T14:48:11.241Z,1296
2017-01-12T14:49:15.450Z,1320
2017-01-12T14:50:19.837Z,1336
2017-01-12T14:51:25.004Z,1320
2017-01-12T14:52:30.201Z,1264
2017-01-12T14:53:36.473Z,1216
2017-01-12T14:54:40.105Z,1192
2017-01-12T14:55:46.266Z,1196
2017-01-12T14:56:51.598Z,1192
2017-01-12T14:57:56.798Z,1164
2017-01-12T14:59:02.024Z,1116
2017-01-12T15:00:07.198Z,1052
2017-01-12T15:01:11.507Z,1000
2017-01-12T15:02:16.675Z,968
2017-01-12T15:03:22.840Z,928
2017-01-12T15:04:29.012Z,884
2017-01-12T15:05:33.246Z,852
2017-01-12T15:06:39.424Z,808
2017-01-12T15:07:45.627Z,764
2017-01-12T15:08:49.907Z,712
2017-01-12T15:09:54.081Z,668
2017-01-12T15:10:59.290Z,628
2017-01-12T15:12:04.450Z,588
2017-01-12T15:13:08.692Z,560
2017-01-12T15:15:52.380Z,464
2017-01-12T15:16:58.557Z,432
2017-01-12T15:18:03.016Z,412
2017-01-12T15:19:27.123Z,396
2017-01-12T15:20:32.323Z,384
2017-01-12T15:21:38.491Z,372